Time;durP1;ratioP1;P1;durP2;ratioP2;P2;SDS_P1;SDS_P2;PMS_P1;PMS_P2;Temp;Humidity;BMP_temperature;BMP_pressure;BME280_temperature;BME280_humidity;BME280_pressure;Samples;Min_cycle;Max_cycle;Signal;HPM_P1;HPM_P2
2022/03/31 00:02:04;;;;;;;2.00;0.60;;;19.90;49.80;;;;;;4881556;29;20041;-59
2022/03/31 00:04:30;;;;;;;2.88;0.70;;;19.80;49.70;;;;;;4881897;29;20057;-59
2022/03/31 00:06:56;;;;;;;2.33;0.75;;;19.80;49.60;;;;;;4882179;29;20045;-59
2022/03/31 00:09:21;;;;;;;2.78;0.80;;;19.80;49.70;;;;;;4881026;29;20048;-59
2022/03/31 00:11:47;;;;;;;3.30;0.80;;;19.80;49.70;;;;;;4881502;29;20049;-60
2022/03/31 00:14:12;;;;;;;2.90;0.70;;;19.80;49.60;;;;;;4881596;29;20135;-59
2022/03/31 00:16:38;;;;;;;2.08;0.70;;;19.80;49.70;;;;;;4881413;29;20053;-60
2022/03/31 00:19:04;;;;;;;2.30;0.50;;;19.80;49.70;;;;;;4882055;29;20052;-60
2022/03/31 00:24:51;;;;;;;3.20;0.60;;;19.80;49.60;;;;;;4881683;29;20482;-59
2022/03/31 00:27:17;;;;;;;2.20;0.70;;;19.70;49.70;;;;;;4881513;29;20045;-60
2022/03/31 00:29:42;;;;;;;3.03;0.82;;;19.70;49.60;;;;;;4880856;29;20570;-59
2022/03/31 00:32:08;;;;;;;1.25;0.55;;;19.70;49.70;;;;;;4881418;29;20128;-59
2022/03/31 00:34:35;;;;;;;3.05;0.73;;;19.70;49.70;;;;;;4881230;29;20076;-59
2022/03/31 00:37:01;;;;;;;4.38;0.70;;;19.70;49.70;;;;;;4880994;29;20052;-59
2022/03/31 00:39:31;;;;;;;2.92;0.50;;;19.70;49.60;;;;;;4880965;29;20049;-60
2022/03/31 00:41:58;;;;;;;1.77;0.60;;;19.70;49.60;;;;;;4881449;29;20124;-59
2022/03/31 00:44:24;;;;;;;2.28;0.60;;;19.70;49.70;;;;;;4880422;29;20056;-59
2022/03/31 00:46:50;;;;;;;2.83;0.60;;;19.70;49.70;;;;;;4881298;29;20052;-60
2022/03/31 00:49:17;;;;;;;1.67;0.55;;;19.70;49.60;;;;;;4880884;29;20135;-59
2022/03/31 00:51:42;;;;;;;2.85;0.70;;;19.70;49.70;;;;;;4879860;29;20053;-59
2022/03/31 00:54:08;;;;;;;2.25;0.50;;;19.70;49.60;;;;;;4880756;29;20433;-59
2022/03/31 00:56:34;;;;;;;2.45;0.60;;;19.70;49.60;;;;;;4879830;29;20044;-60
2022/03/31 00:58:59;;;;;;;1.58;0.50;;;19.70;49.60;;;;;;4878842;29;20054;-59
2022/03/31 01:01:25;;;;;;;2.38;0.50;;;19.70;49.60;;;;;;4879688;29;20049;-59
2022/03/31 01:03:51;;;;;;;1.77;0.60;;;19.70;49.60;;;;;;4880751;29;20116;-59
2022/03/31 01:06:16;;;;;;;2.55;0.50;;;19.60;49.60;;;;;;4879427;29;20421;-60
2022/03/31 01:08:42;;;;;;;1.83;0.80;;;19.60;49.60;;;;;;4880919;29;20041;-60
2022/03/31 01:11:08;;;;;;;1.90;0.52;;;19.60;49.50;;;;;;4879259;29;20053;-60
2022/03/31 01:13:33;;;;;;;3.13;0.88;;;19.60;49.50;;;;;;4880502;29;20037;-60
2022/03/31 01:15:59;;;;;;;1.95;0.60;;;19.60;49.40;;;;;;4880636;29;20525;-60
2022/03/31 01:18:25;;;;;;;2.47;0.50;;;19.60;50.00;;;;;;4880068;29;20045;-60
2022/03/31 01:20:50;;;;;;;2.10;0.40;;;19.70;49.30;;;;;;4880375;29;20132;-60
2022/03/31 01:23:16;;;;;;;1.48;0.50;;;19.60;49.30;;;;;;4880172;29;20049;-60
2022/03/31 01:25:42;;;;;;;2.17;0.50;;;19.60;49.40;;;;;;4880052;29;20045;-60
2022/03/31 01:28:08;;;;;;;1.98;0.47;;;19.60;49.30;;;;;;4880414;29;20049;-60
2022/03/31 01:30:33;;;;;;;0.98;0.38;;;19.60;49.30;;;;;;4880001;29;20049;-60
2022/03/31 01:32:59;;;;;;;2.25;0.50;;;19.60;49.30;;;;;;4879625;29;20037;-59
2022/03/31 01:35:25;;;;;;;1.27;0.80;;;19.70;49.30;;;;;;4879971;29;20383;-60
2022/03/31 01:37:51;;;;;;;1.70;0.60;;;19.70;49.30;;;;;;4879662;29;20387;-60
2022/03/31 01:40:17;;;;;;;1.60;0.40;;;19.70;49.20;;;;;;4878842;29;20580;-60
2022/03/31 01:42:43;;;;;;;2.22;0.70;;;19.70;49.20;;;;;;4880277;29;20131;-60
2022/03/31 01:45:14;;;;;;;1.13;0.30;;;19.70;49.20;;;;;;4880208;29;20474;-60
2022/03/31 01:47:40;;;;;;;2.33;0.43;;;19.70;49.10;;;;;;4879573;29;20045;-60
2022/03/31 01:50:09;;;;;;;1.75;0.40;;;19.70;49.10;;;;;;4879671;29;20056;-60
2022/03/31 01:52:35;;;;;;;1.15;0.30;;;19.70;49.10;;;;;;4879042;29;20049;-60
2022/03/31 01:55:00;;;;;;;0.98;0.32;;;19.70;49.10;;;;;;4879244;29;20052;-60
2022/03/31 01:57:26;;;;;;;2.00;0.50;;;19.70;49.10;;;;;;4879875;29;20108;-60
2022/03/31 01:59:52;;;;;;;2.00;0.45;;;19.70;49.10;;;;;;4880083;29;20052;-60
2022/03/31 02:02:17;;;;;;;1.15;0.40;;;19.80;49.10;;;;;;4862145;29;20166;-60
2022/03/31 02:04:43;;;;;;;1.70;0.52;;;19.80;49.10;;;;;;4860982;29;20045;-60
2022/03/31 02:07:09;;;;;;;2.00;0.47;;;19.80;49.00;;;;;;4860688;29;20045;-60
2022/03/31 02:09:35;;;;;;;3.13;0.45;;;19.80;49.10;;;;;;4860521;29;20060;-60
2022/03/31 02:12:01;;;;;;;1.48;0.40;;;19.80;49.00;;;;;;4861089;29;20041;-59
2022/03/31 02:14:27;;;;;;;1.10;0.50;;;19.80;49.00;;;;;;4859727;29;20562;-59
2022/03/31 02:16:53;;;;;;;2.05;0.60;;;19.80;49.00;;;;;;4860763;29;20512;-59
2022/03/31 02:19:18;;;;;;;1.40;0.50;;;19.80;49.00;;;;;;4860771;29;20048;-59
2022/03/31 02:21:46;;;;;;;3.50;0.70;;;19.80;49.00;;;;;;4859991;29;20045;-59
2022/03/31 02:24:12;;;;;;;3.10;0.40;;;19.90;49.00;;;;;;4860854;29;20056;-60
2022/03/31 02:26:38;;;;;;;2.28;0.40;;;19.90;49.00;;;;;;4861524;29;20049;-60
2022/03/31 02:29:04;;;;;;;1.65;0.40;;;19.90;49.00;;;;;;4860435;29;20390;-60
2022/03/31 02:31:30;;;;;;;1.98;0.40;;;19.90;49.00;;;;;;4860225;29;20042;-60
2022/03/31 02:33:56;;;;;;;1.65;0.45;;;19.90;49.00;;;;;;4860994;29;20042;-60
2022/03/31 02:36:22;;;;;;;2.22;0.40;;;19.90;48.90;;;;;;4858178;29;20049;-60
2022/03/31 02:38:47;;;;;;;0.98;0.43;;;19.90;48.90;;;;;;4860932;29;20060;-60
2022/03/31 02:41:13;;;;;;;0.40;0.20;;;19.90;48.90;;;;;;4860610;29;20113;-60
2022/03/31 02:43:38;;;;;;;1.05;0.30;;;19.90;48.90;;;;;;4860174;29;20506;-60
2022/03/31 02:46:04;;;;;;;1.13;0.30;;;19.90;48.90;;;;;;4860456;29;20045;-60
2022/03/31 02:48:29;;;;;;;1.38;0.38;;;19.90;48.90;;;;;;4860037;29;20048;-60
2022/03/31 02:50:55;;;;;;;1.10;0.30;;;20.00;48.90;;;;;;4859585;29;20087;-60
2022/03/31 02:56:05;;;;;;;2.10;0.47;;;20.00;48.90;;;;;;4860620;29;20050;-60
2022/03/31 02:58:30;;;;;;;1.35;0.32;;;20.00;48.90;;;;;;4859715;29;20049;-60
2022/03/31 03:00:56;;;;;;;1.33;0.50;;;20.00;48.90;;;;;;4860573;29;20053;-60
2022/03/31 03:03:22;;;;;;;0.80;0.32;;;20.00;48.90;;;;;;4859845;29;20414;-60
2022/03/31 03:05:48;;;;;;;1.02;0.32;;;20.00;48.80;;;;;;4859704;29;20049;-60
2022/03/31 03:08:14;;;;;;;0.93;0.30;;;20.00;48.80;;;;;;4859793;29;20037;-60
2022/03/31 03:10:40;;;;;;;1.40;0.30;;;20.00;48.90;;;;;;4859922;29;20088;-60
2022/03/31 03:13:06;;;;;;;2.05;0.40;;;20.00;48.90;;;;;;4860299;29;20048;-60
2022/03/31 03:15:32;;;;;;;1.77;0.30;;;20.00;48.80;;;;;;4859042;29;20070;-60
2022/03/31 03:17:57;;;;;;;0.98;0.50;;;20.10;48.90;;;;;;4859638;29;20077;-60
2022/03/31 03:20:24;;;;;;;1.33;0.30;;;20.10;48.90;;;;;;4859610;29;20056;-59
2022/03/31 03:22:50;;;;;;;1.48;0.30;;;20.10;48.90;;;;;;4859934;29;20049;-60
2022/03/31 03:25:17;;;;;;;1.08;0.30;;;20.10;48.90;;;;;;4859563;29;20053;-59
2022/03/31 03:27:43;;;;;;;0.80;0.30;;;20.10;48.90;;;;;;4859939;29;20413;-59
2022/03/31 03:30:09;;;;;;;1.65;0.30;;;20.10;48.90;;;;;;4860040;29;20513;-60
2022/03/31 03:32:38;;;;;;;1.00;0.35;;;20.10;48.90;;;;;;4859248;29;20081;-59
2022/03/31 03:35:05;;;;;;;1.00;0.20;;;20.10;48.80;;;;;;4860639;29;20093;-60
2022/03/31 03:37:31;;;;;;;1.00;0.30;;;20.10;48.80;;;;;;4859636;29;20045;-60
2022/03/31 03:39:56;;;;;;;1.13;0.30;;;20.10;48.80;;;;;;4859549;29;20053;-60
2022/03/31 03:42:22;;;;;;;1.23;0.40;;;20.10;48.90;;;;;;4859910;29;20046;-60
2022/03/31 03:44:47;;;;;;;0.38;0.25;;;20.10;48.90;;;;;;4859808;29;20402;-59
2022/03/31 03:47:13;;;;;;;1.23;0.30;;;20.10;48.90;;;;;;4859097;29;20049;-60
2022/03/31 03:49:39;;;;;;;1.23;0.50;;;20.20;48.80;;;;;;4859879;29;20045;-59
2022/03/31 03:52:04;;;;;;;1.15;0.40;;;20.10;48.70;;;;;;4859708;29;20136;-60
2022/03/31 03:54:30;;;;;;;0.25;0.20;;;20.20;48.80;;;;;;4859026;29;20485;-60
2022/03/31 03:56:56;;;;;;;0.65;0.20;;;20.20;48.80;;;;;;4859810;29;20049;-60
2022/03/31 03:59:22;;;;;;;0.75;0.30;;;20.20;48.80;;;;;;4859929;29;20056;-60
2022/03/31 04:01:47;;;;;;;0.40;0.30;;;20.20;48.80;;;;;;4869962;29;20059;-59
2022/03/31 04:04:13;;;;;;;1.63;0.40;;;20.20;48.80;;;;;;4877869;29;20183;-60
2022/03/31 04:06:38;;;;;;;0.47;0.20;;;20.20;48.80;;;;;;4877023;29;20053;-60
2022/03/31 04:09:04;;;;;;;0.73;0.20;;;20.20;48.70;;;;;;4877473;29;20049;-60
2022/03/31 04:11:29;;;;;;;0.40;0.20;;;20.20;48.80;;;;;;4878103;29;20481;-60
2022/03/31 04:13:55;;;;;;;0.85;0.25;;;20.20;48.70;;;;;;4877601;29;20117;-60
2022/03/31 04:16:20;;;;;;;0.40;0.22;;;20.20;48.70;;;;;;4878110;29;20125;-60
2022/03/31 04:18:46;;;;;;;0.93;0.30;;;20.20;48.80;;;;;;4878078;29;20414;-60
2022/03/31 04:21:13;;;;;;;1.42;0.32;;;20.20;48.70;;;;;;4876935;29;20041;-60
2022/03/31 04:23:39;;;;;;;1.08;0.30;;;20.20;48.70;;;;;;4878293;29;20053;-60
2022/03/31 04:26:05;;;;;;;0.40;0.20;;;20.20;48.70;;;;;;4878385;29;20048;-60
2022/03/31 04:28:30;;;;;;;0.70;0.30;;;20.30;48.80;;;;;;4877285;29;20059;-60
2022/03/31 04:30:56;;;;;;;1.23;0.30;;;20.30;48.70;;;;;;4878010;29;20073;-60
2022/03/31 04:33:21;;;;;;;1.20;0.32;;;20.30;48.70;;;;;;4879981;29;20073;-60
2022/03/31 04:35:47;;;;;;;0.77;0.20;;;20.30;48.70;;;;;;4880565;29;20049;-60
2022/03/31 04:38:12;;;;;;;0.60;0.20;;;20.30;48.80;;;;;;4881351;29;20044;-59
2022/03/31 04:40:38;;;;;;;0.50;0.30;;;20.30;48.80;;;;;;4881202;29;20052;-60
2022/03/31 04:43:03;;;;;;;0.45;0.20;;;20.30;48.70;;;;;;4880899;29;20052;-60
2022/03/31 04:45:29;;;;;;;0.63;0.30;;;20.30;48.80;;;;;;4880987;29;20048;-60
2022/03/31 04:47:54;;;;;;;1.40;0.20;;;20.30;48.70;;;;;;4881015;29;20045;-60
2022/03/31 04:50:20;;;;;;;0.38;0.20;;;20.30;48.70;;;;;;4878984;29;20108;-59
2022/03/31 04:52:46;;;;;;;1.00;0.20;;;20.30;48.70;;;;;;4881093;29;20056;-60
2022/03/31 04:55:11;;;;;;;0.52;0.20;;;20.30;48.60;;;;;;4880975;29;20041;-60
2022/03/31 04:57:37;;;;;;;0.77;0.25;;;20.30;48.60;;;;;;4880494;29;20108;-60
2022/03/31 05:00:03;;;;;;;0.63;0.20;;;20.30;48.60;;;;;;4880966;29;20049;-60
2022/03/31 05:02:29;;;;;;;0.85;0.40;;;20.30;48.60;;;;;;4880660;29;20123;-60
2022/03/31 05:04:54;;;;;;;0.38;0.20;;;20.40;48.70;;;;;;4880186;29;20132;-60
2022/03/31 05:07:20;;;;;;;0.90;0.20;;;20.30;48.60;;;;;;4879878;29;20093;-60
2022/03/31 05:09:45;;;;;;;0.20;0.20;;;20.40;48.60;;;;;;4880881;29;20056;-60
2022/03/31 05:12:14;;;;;;;0.60;0.30;;;20.30;48.60;;;;;;4880092;29;20079;-60
2022/03/31 05:14:40;;;;;;;0.47;0.20;;;20.40;48.60;;;;;;4880606;29;20061;-60
2022/03/31 05:17:05;;;;;;;0.85;0.20;;;20.40;48.80;;;;;;4879860;29;20131;-60
2022/03/31 05:19:31;;;;;;;0.98;0.30;;;20.40;48.60;;;;;;4880523;29;20370;-60
2022/03/31 05:21:57;;;;;;;0.50;0.20;;;20.40;48.60;;;;;;4880531;29;20129;-60
2022/03/31 05:24:23;;;;;;;0.73;0.35;;;20.40;48.60;;;;;;4879691;29;20097;-59
2022/03/31 05:26:52;;;;;;;0.70;0.20;;;20.40;48.50;;;;;;4880814;29;20083;-59
2022/03/31 05:29:20;;;;;;;0.63;0.30;;;20.40;48.60;;;;;;4880481;29;20187;-59
2022/03/31 05:31:46;;;;;;;1.58;0.30;;;20.40;48.50;;;;;;4879624;29;20119;-60
2022/03/31 05:34:12;;;;;;;1.23;0.30;;;20.40;48.60;;;;;;4880408;29;20096;-60
2022/03/31 05:36:37;;;;;;;1.25;0.20;;;20.40;48.50;;;;;;4880125;29;20044;-60
2022/03/31 05:39:03;;;;;;;0.88;0.30;;;20.40;48.50;;;;;;4879865;29;20409;-59
2022/03/31 05:41:29;;;;;;;0.55;0.28;;;20.40;48.50;;;;;;4880317;29;20450;-60
2022/03/31 05:43:54;;;;;;;0.73;0.20;;;20.40;48.50;;;;;;4880264;29;20462;-62
2022/03/31 05:46:23;;;;;;;0.30;0.20;;;20.40;48.50;;;;;;4879458;29;20040;-59
2022/03/31 05:48:49;;;;;;;1.85;0.20;;;20.40;48.50;;;;;;4880044;29;20490;-60
2022/03/31 05:51:14;;;;;;;0.35;0.20;;;20.40;48.50;;;;;;4879675;29;20044;-60
2022/03/31 05:53:40;;;;;;;0.73;0.20;;;20.40;48.40;;;;;;4879430;29;20049;-60
2022/03/31 05:56:06;;;;;;;1.23;0.30;;;20.40;48.40;;;;;;4880044;29;20097;-60
2022/03/31 05:58:32;;;;;;;0.98;0.30;;;20.40;48.30;;;;;;4879848;29;20049;-60
2022/03/31 06:00:59;;;;;;;1.08;0.30;;;20.40;48.30;;;;;;4879196;29;20056;-60
2022/03/31 06:03:24;;;;;;;2.17;0.40;;;20.40;48.30;;;;;;4879687;29;20053;-60
2022/03/31 06:05:50;;;;;;;0.45;0.20;;;20.50;48.30;;;;;;4879572;29;20041;-60
2022/03/31 06:08:17;;;;;;;0.80;0.40;;;20.40;48.30;;;;;;4876708;29;20041;-60
2022/03/31 06:10:46;;;;;;;0.60;0.30;;;20.50;48.30;;;;;;4878982;29;20056;-59
2022/03/31 06:13:11;;;;;;;2.75;0.40;;;20.50;48.40;;;;;;4879184;29;20068;-60
2022/03/31 06:15:37;;;;;;;0.45;0.20;;;20.50;48.50;;;;;;4878694;29;20405;-60
2022/03/31 06:18:03;;;;;;;1.90;0.20;;;20.50;48.50;;;;;;4878934;29;20053;-60
2022/03/31 06:20:31;;;;;;;1.42;0.32;;;20.50;48.50;;;;;;4878461;29;20057;-60
2022/03/31 06:22:57;;;;;;;1.02;0.30;;;20.50;48.60;;;;;;4879471;29;20077;-60
2022/03/31 06:25:22;;;;;;;0.28;0.22;;;20.50;48.50;;;;;;4879500;29;20120;-60
2022/03/31 06:27:48;;;;;;;0.63;0.20;;;20.50;48.60;;;;;;4878757;29;20147;-60
2022/03/31 06:30:14;;;;;;;0.73;0.28;;;20.50;48.60;;;;;;4879048;29;20472;-60
2022/03/31 06:32:39;;;;;;;0.65;0.30;;;20.50;48.60;;;;;;4879259;29;20534;-60
2022/03/31 06:35:06;;;;;;;1.42;0.20;;;20.50;48.70;;;;;;4877459;29;20045;-60
2022/03/31 06:37:31;;;;;;;1.08;0.20;;;20.50;48.80;;;;;;4879275;29;20560;-60
2022/03/31 06:39:57;;;;;;;0.80;0.30;;;20.50;48.80;;;;;;4879498;29;20045;-60
2022/03/31 06:42:22;;;;;;;1.20;0.35;;;20.50;49.50;;;;;;4878306;29;20045;-60
2022/03/31 06:44:48;;;;;;;1.80;0.40;;;20.50;48.90;;;;;;4879326;29;20127;-61
2022/03/31 06:47:13;;;;;;;1.55;0.40;;;20.60;49.00;;;;;;4878658;29;20553;-60
2022/03/31 06:49:39;;;;;;;2.17;0.40;;;20.50;48.90;;;;;;4878470;29;20482;-59
2022/03/31 06:52:05;;;;;;;2.30;0.50;;;20.60;49.00;;;;;;4879024;29;20107;-60
2022/03/31 06:54:31;;;;;;;4.72;0.50;;;20.60;49.30;;;;;;4878494;29;20053;-59
2022/03/31 06:56:57;;;;;;;3.53;0.80;;;20.60;49.50;;;;;;4878557;29;20048;-60
2022/03/31 06:59:22;;;;;;;3.25;0.73;;;20.60;49.60;;;;;;4879186;29;20045;-59
2022/03/31 07:01:48;;;;;;;2.15;0.63;;;20.60;49.70;;;;;;4879116;29;20425;-59
2022/03/31 07:04:14;;;;;;;5.55;0.93;;;20.60;49.80;;;;;;4878067;29;20128;-59
2022/03/31 07:06:40;;;;;;;4.45;0.90;;;20.60;49.90;;;;;;4879506;29;20205;-59
2022/03/31 07:09:06;;;;;;;3.67;0.90;;;20.60;49.90;;;;;;4879052;29;20569;-60
2022/03/31 07:11:32;;;;;;;3.85;1.13;;;20.60;50.00;;;;;;4878226;29;20108;-59
2022/03/31 07:14:01;;;;;;;3.03;0.90;;;20.70;50.10;;;;;;4878806;29;20072;-59
2022/03/31 07:16:30;;;;;;;2.40;1.02;;;20.70;50.20;;;;;;4878430;29;20048;-59
2022/03/31 07:18:56;;;;;;;3.78;1.25;;;20.70;50.30;;;;;;4878213;29;20052;-59
2022/03/31 07:21:23;;;;;;;5.30;1.15;;;20.70;50.30;;;;;;4878654;29;20049;-60
2022/03/31 07:23:50;;;;;;;2.75;1.00;;;20.70;50.40;;;;;;4878314;29;20056;-59
2022/03/31 07:26:16;;;;;;;4.85;1.13;;;20.70;50.40;;;;;;4878846;29;20060;-60
2022/03/31 07:28:41;;;;;;;2.05;0.80;;;20.70;50.20;;;;;;4879017;29;20053;-59
2022/03/31 07:31:07;;;;;;;4.53;1.10;;;20.70;50.20;;;;;;4874760;29;20168;-59
2022/03/31 07:33:33;;;;;;;3.47;1.25;;;20.70;50.30;;;;;;4876427;29;20084;-59
2022/03/31 07:35:58;;;;;;;5.95;1.30;;;20.70;50.40;;;;;;4876928;29;20072;-59
2022/03/31 07:38:24;;;;;;;3.28;1.15;;;20.70;50.40;;;;;;4876850;29;20041;-60
2022/03/31 07:40:50;;;;;;;3.53;1.10;;;20.70;50.50;;;;;;4877843;29;20099;-60
2022/03/31 07:43:15;;;;;;;3.05;1.02;;;20.70;50.50;;;;;;4877813;29;20045;-59
2022/03/31 07:45:41;;;;;;;3.53;0.98;;;20.70;50.40;;;;;;4877994;29;20131;-59
2022/03/31 07:48:13;;;;;;;4.78;1.17;;;20.80;50.50;;;;;;4878549;29;20049;-59
2022/03/31 07:50:39;;;;;;;3.65;1.13;;;20.80;50.40;;;;;;4878849;29;20115;-59
2022/03/31 07:53:04;;;;;;;3.85;1.00;;;20.80;50.30;;;;;;4878021;29;20487;-59
2022/03/31 07:55:30;;;;;;;2.28;0.82;;;20.80;50.20;;;;;;4878673;29;20492;-59
2022/03/31 07:57:56;;;;;;;3.28;0.73;;;20.80;50.10;;;;;;4878737;29;20124;-59
2022/03/31 08:00:21;;;;;;;3.40;1.17;;;20.80;50.00;;;;;;4877313;29;20052;-59
2022/03/31 08:02:49;;;;;;;3.95;0.95;;;20.70;49.90;;;;;;4878605;29;20489;-59
2022/03/31 08:05:18;;;;;;;2.38;0.80;;;20.70;49.70;;;;;;4879054;29;20045;-60
2022/03/31 08:07:44;;;;;;;3.15;0.88;;;20.80;49.60;;;;;;4881054;29;20061;-59
2022/03/31 08:10:09;;;;;;;2.65;1.02;;;20.70;49.50;;;;;;4882119;29;20045;-58
2022/03/31 08:12:35;;;;;;;3.28;0.90;;;20.70;49.40;;;;;;4876646;29;20073;-59
2022/03/31 08:15:04;;;;;;;2.95;0.80;;;20.80;49.70;;;;;;4878424;29;20060;-59
2022/03/31 08:17:30;;;;;;;5.03;1.05;;;20.80;49.90;;;;;;4879861;29;20466;-59
2022/03/31 08:19:55;;;;;;;4.22;0.88;;;20.80;50.00;;;;;;4878947;29;20041;-60
2022/03/31 08:22:21;;;;;;;2.45;1.33;;;20.80;50.10;;;;;;4877213;29;20397;-59
2022/03/31 08:24:47;;;;;;;3.85;1.27;;;20.80;50.10;;;;;;4877365;29;20052;-60
2022/03/31 08:27:12;;;;;;;2.53;0.95;;;20.80;50.10;;;;;;4878735;29;20076;-61
2022/03/31 08:29:39;;;;;;;2.20;0.90;;;20.80;50.10;;;;;;4878929;29;20056;-61
2022/03/31 08:32:07;;;;;;;3.55;0.90;;;20.90;50.20;;;;;;4879696;29;20092;-61
2022/03/31 08:34:32;;;;;;;2.10;1.10;;;20.90;50.20;;;;;;4877140;29;20064;-61
2022/03/31 08:36:58;;;;;;;2.05;0.82;;;20.90;50.10;;;;;;4879459;29;20477;-60
2022/03/31 08:39:23;;;;;;;4.25;1.00;;;20.90;50.00;;;;;;4878762;29;20076;-61
2022/03/31 08:41:49;;;;;;;1.77;0.82;;;20.90;50.10;;;;;;4878949;29;20051;-61
2022/03/31 08:44:15;;;;;;;4.32;1.17;;;20.90;50.10;;;;;;4879198;29;20401;-60
2022/03/31 08:46:41;;;;;;;3.67;1.25;;;20.90;50.20;;;;;;4879545;29;20047;-61
2022/03/31 08:49:07;;;;;;;3.80;1.00;;;20.90;50.10;;;;;;4878044;29;20049;-60
2022/03/31 08:51:33;;;;;;;3.20;1.00;;;20.90;50.20;;;;;;4879938;29;20045;-61
2022/03/31 08:53:58;;;;;;;3.33;0.90;;;20.90;50.20;;;;;;4878715;29;20051;-60
2022/03/31 08:56:24;;;;;;;3.03;1.02;;;20.90;50.10;;;;;;4878452;29;20041;-60
2022/03/31 08:58:49;;;;;;;2.67;1.00;;;20.90;50.00;;;;;;4878313;29;20051;-59
2022/03/31 09:01:15;;;;;;;1.85;1.00;;;20.90;49.90;;;;;;4879418;29;20052;-59
2022/03/31 09:03:41;;;;;;;2.47;1.20;;;20.90;49.90;;;;;;4873091;29;20040;-60
2022/03/31 09:06:10;;;;;;;2.55;1.15;;;20.90;49.90;;;;;;4879965;29;20049;-60
2022/03/31 09:08:35;;;;;;;3.40;1.10;;;20.90;49.90;;;;;;4880496;29;20104;-60
2022/03/31 09:11:03;;;;;;;3.17;1.23;;;21.00;49.80;;;;;;4880227;29;20045;-60
2022/03/31 09:13:36;;;;;;;2.00;0.90;;;21.00;49.90;;;;;;4880702;29;20485;-60
2022/03/31 09:16:10;;;;;;;2.88;0.80;;;21.00;49.90;;;;;;4881010;29;20053;-59
2022/03/31 09:18:36;;;;;;;3.55;1.00;;;21.00;49.90;;;;;;4879619;29;20056;-61
2022/03/31 09:21:03;;;;;;;2.45;0.98;;;21.00;50.00;;;;;;4880928;29;20049;-61
2022/03/31 09:23:32;;;;;;;3.00;1.10;;;21.00;50.00;;;;;;4880035;29;20080;-58
2022/03/31 09:26:02;;;;;;;2.70;0.93;;;21.00;49.90;;;;;;4880658;29;20095;-59
2022/03/31 09:28:27;;;;;;;2.50;1.08;;;21.00;49.90;;;;;;4880150;29;20410;-60
2022/03/31 09:30:55;;;;;;;2.20;1.10;;;21.00;49.70;;;;;;4878930;29;20482;-60
2022/03/31 09:33:31;;;;;;;3.55;0.95;;;21.00;49.70;;;;;;4878269;29;20040;-59
2022/03/31 09:35:57;;;;;;;5.05;1.00;;;21.00;49.70;;;;;;4877986;29;20248;-60
2022/03/31 09:38:23;;;;;;;3.00;1.70;;;21.00;49.60;;;;;;4879029;29;20073;-59
2022/03/31 09:40:48;;;;;;;3.05;0.90;;;21.00;49.60;;;;;;4880324;29;20154;-60
2022/03/31 09:43:14;;;;;;;2.97;0.90;;;21.00;49.50;;;;;;4878672;29;20439;-60
2022/03/31 09:45:40;;;;;;;1.88;0.95;;;21.00;49.50;;;;;;4879212;29;20606;-60
2022/03/31 09:48:08;;;;;;;1.95;0.90;;;21.00;49.30;;;;;;4880209;29;20121;-60
2022/03/31 09:50:36;;;;;;;2.17;0.82;;;21.00;49.20;;;;;;4878001;29;20048;-61
2022/03/31 09:53:02;;;;;;;2.60;0.80;;;20.90;48.90;;;;;;4879062;29;20043;-60
2022/03/31 09:55:28;;;;;;;1.92;1.00;;;21.00;48.80;;;;;;4879455;29;20056;-61
2022/03/31 09:57:53;;;;;;;2.85;0.90;;;20.90;48.50;;;;;;4876288;29;20045;-59
2022/03/31 10:00:20;;;;;;;2.33;1.00;;;20.90;48.20;;;;;;4875694;29;20060;-59
2022/03/31 10:02:46;;;;;;;1.45;0.90;;;20.90;48.30;;;;;;4877194;29;20044;-59
2022/03/31 10:05:11;;;;;;;2.53;0.95;;;20.90;48.70;;;;;;4876806;29;20425;-59
2022/03/31 10:07:37;;;;;;;3.70;0.93;;;20.90;49.00;;;;;;4859911;29;20044;-59
2022/03/31 10:10:03;;;;;;;1.70;0.75;;;20.90;48.90;;;;;;4877568;29;20135;-60
2022/03/31 10:12:43;;;;;;;2.20;0.90;;;20.90;49.00;;;;;;4876867;29;20075;-59
2022/03/31 10:15:11;;;;;;;3.05;0.85;;;21.00;49.10;;;;;;4862618;29;20183;-59
2022/03/31 10:17:37;;;;;;;;;;;20.90;49.10;;;;;;4878453;29;20055;-60
2022/03/31 10:20:09;;;;;;;2.03;1.00;;;20.90;49.10;;;;;;4878703;29;19924;-60
2022/03/31 10:25:20;;;;;;;2.70;1.10;;;21.00;49.10;;;;;;4876121;29;20482;-60
2022/03/31 10:27:45;;;;;;;2.45;1.05;;;21.00;49.10;;;;;;4877628;29;20069;-61
2022/03/31 10:30:16;;;;;;;2.33;0.90;;;21.00;49.10;;;;;;4879036;29;20048;-60
2022/03/31 10:33:04;;;;;;;3.78;1.33;;;21.00;49.00;;;;;;4879248;29;20442;-60
2022/03/31 10:35:35;;;;;;;5.18;1.25;;;21.00;49.00;;;;;;4878571;29;20049;-61
2022/03/31 10:38:19;;;;;;;2.75;1.10;;;21.00;49.10;;;;;;4879706;29;20541;-60
2022/03/31 10:40:48;;;;;;;2.55;0.80;;;21.00;49.10;;;;;;4878983;29;20060;-61
2022/03/31 10:43:31;;;;;;;3.95;0.93;;;21.00;49.10;;;;;;4879296;29;20052;-61
2022/03/31 10:45:58;;;;;;;5.03;1.10;;;21.00;49.20;;;;;;4879388;29;20048;-59
2022/03/31 10:48:27;;;;;;;3.20;1.05;;;21.00;49.10;;;;;;4877779;29;20533;-60
2022/03/31 10:51:10;;;;;;;4.78;1.27;;;21.00;48.90;;;;;;4878593;29;20044;-60
2022/03/31 10:53:38;;;;;;;4.53;1.00;;;21.00;48.80;;;;;;4878809;29;20067;-59
2022/03/31 10:56:19;;;;;;;2.45;1.05;;;21.00;49.00;;;;;;4875792;29;20521;-59
2022/03/31 10:58:44;;;;;;;4.93;1.30;;;21.00;49.70;;;;;;4876659;29;20037;-59
2022/03/31 11:01:10;;;;;;;4.30;1.20;;;21.00;49.10;;;;;;4878845;29;20059;-60
2022/03/31 11:03:36;;;;;;;2.10;0.98;;;21.00;49.10;;;;;;4878230;29;20041;-59
2022/03/31 11:06:04;;;;;;;3.20;1.00;;;21.00;49.20;;;;;;4876489;29;20144;-59
2022/03/31 11:08:30;;;;;;;2.72;0.80;;;21.00;49.20;;;;;;4878473;29;20045;-59
2022/03/31 11:10:55;;;;;;;5.15;1.00;;;21.00;49.30;;;;;;4876810;29;20052;-60
2022/03/31 11:13:32;;;;;;;2.95;1.10;;;21.00;49.30;;;;;;4878521;29;20048;-60
2022/03/31 11:15:57;;;;;;;2.53;0.90;;;21.00;49.30;;;;;;4877568;29;20107;-60
2022/03/31 11:18:23;;;;;;;1.95;0.80;;;21.00;49.30;;;;;;4875995;29;20049;-59
2022/03/31 11:20:54;;;;;;;4.15;1.27;;;21.00;49.30;;;;;;4878186;29;20072;-60
2022/03/31 11:23:20;;;;;;;5.07;0.90;;;21.10;49.40;;;;;;4877290;29;20449;-59
2022/03/31 11:25:46;;;;;;;2.97;0.70;;;21.10;49.40;;;;;;4878643;29;20123;-59
2022/03/31 11:28:12;;;;;;;1.67;0.70;;;21.10;49.30;;;;;;4878411;29;20173;-60
2022/03/31 11:30:38;;;;;;;3.33;0.90;;;21.10;49.30;;;;;;4877980;29;20128;-59
2022/03/31 11:33:04;;;;;;;1.55;0.80;;;21.10;49.30;;;;;;4878719;29;20132;-59
2022/03/31 11:35:30;;;;;;;1.27;0.80;;;21.00;49.20;;;;;;4878752;29;20041;-60
2022/03/31 11:38:00;;;;;;;2.72;0.70;;;21.10;49.10;;;;;;4877943;29;20044;-59
2022/03/31 11:40:32;;;;;;;2.72;0.80;;;21.10;49.10;;;;;;4878500;29;20052;-59
2022/03/31 11:42:59;;;;;;;1.48;0.70;;;21.10;49.20;;;;;;4882516;29;20045;-60
2022/03/31 11:45:27;;;;;;;3.55;0.80;;;21.10;49.60;;;;;;4881465;29;20049;-59
2022/03/31 11:47:55;;;;;;;;;;;21.10;49.30;;;;;;4882873;29;20404;-60
2022/03/31 11:50:20;;;;;;;4.30;0.80;;;21.10;49.30;;;;;;4882134;29;20027;-60
2022/03/31 11:52:48;;;;;;;64.88;5.43;;;21.10;49.30;;;;;;4881792;29;20086;-61
2022/03/31 11:55:14;;;;;;;4.30;0.95;;;21.10;49.60;;;;;;4882260;29;20064;-60
2022/03/31 11:57:39;;;;;;;7.95;1.05;;;21.10;49.60;;;;;;4882312;29;20037;-62
2022/03/31 12:00:09;;;;;;;4.57;0.90;;;21.10;49.50;;;;;;4880108;29;20085;-60
2022/03/31 12:02:35;;;;;;;5.25;0.80;;;21.10;49.30;;;;;;4881190;29;20124;-62
2022/03/31 12:05:04;;;;;;;6.82;0.85;;;21.10;49.40;;;;;;4879688;29;20150;-62
2022/03/31 12:07:29;;;;;;;10.52;0.95;;;21.10;49.60;;;;;;4881583;29;20048;-61
2022/03/31 12:09:55;;;;;;;3.03;0.80;;;21.10;49.70;;;;;;4881707;29;20041;-62
2022/03/31 12:12:20;;;;;;;3.08;0.70;;;21.10;49.80;;;;;;4864123;29;20425;-62
2022/03/31 12:14:56;;;;;;;1.25;0.70;;;21.10;50.50;;;;;;4880048;29;20057;-63
2022/03/31 12:17:22;;;;;;;3.28;0.70;;;21.10;49.80;;;;;;4882009;29;20053;-63
2022/03/31 12:19:48;;;;;;;3.92;0.90;;;21.10;49.80;;;;;;4881224;29;20070;-60
2022/03/31 12:22:14;;;;;;;7.72;1.40;;;21.10;49.80;;;;;;4881380;29;20112;-62
2022/03/31 12:24:50;;;;;;;2.60;0.77;;;21.10;49.70;;;;;;4880621;29;20069;-61
2022/03/31 12:27:16;;;;;;;3.33;1.00;;;21.10;49.60;;;;;;4880440;29;20045;-61
2022/03/31 12:29:42;;;;;;;4.60;1.05;;;21.10;49.60;;;;;;4881627;29;20041;-60
2022/03/31 12:32:12;;;;;;;2.88;0.90;;;21.20;49.60;;;;;;4881174;29;20049;-61
2022/03/31 12:34:54;;;;;;;4.43;1.00;;;21.30;49.50;;;;;;4878431;29;20091;-62
2022/03/31 12:37:33;;;;;;;6.38;1.10;;;21.30;49.50;;;;;;4878972;29;20097;-62
2022/03/31 12:39:59;;;;;;;4.57;1.10;;;21.40;49.50;;;;;;4879173;29;20057;-65
2022/03/31 12:42:25;;;;;;;3.65;1.25;;;21.50;49.30;;;;;;4880478;29;20041;-61
2022/03/31 12:44:51;;;;;;;3.70;1.23;;;21.50;49.10;;;;;;4881449;29;20049;-60
2022/03/31 12:47:24;;;;;;;3.65;1.50;;;21.50;48.90;;;;;;4880512;29;20041;-61
2022/03/31 12:49:50;;;;;;;3.08;1.63;;;21.40;48.10;;;;;;4881275;29;20076;-60
2022/03/31 12:52:20;;;;;;;4.80;1.48;;;21.40;48.20;;;;;;4880720;29;20045;-59
2022/03/31 12:54:50;;;;;;;3.72;1.42;;;21.30;48.30;;;;;;4880205;29;20049;-59